createdAt,value
2018-11-02T00:01:44.070Z,9.80
2018-11-02T00:04:18.298Z,9.80
2018-11-02T00:06:52.607Z,9.80
2018-11-02T00:09:26.705Z,9.80
2018-11-02T00:12:00.845Z,9.80
2018-11-02T00:14:34.954Z,9.80
2018-11-02T00:17:09.072Z,9.80
2018-11-02T00:19:43.294Z,9.80
2018-11-02T00:22:17.404Z,9.90
2018-11-02T00:24:51.502Z,9.90
2018-11-02T00:27:25.609Z,9.90
2018-11-02T00:29:59.963Z,9.90
2018-11-02T00:32:34.087Z,9.90
2018-11-02T00:35:08.723Z,9.90
2018-11-02T00:37:43.073Z,9.90
2018-11-02T00:40:17.202Z,9.90
2018-11-02T00:42:51.336Z,9.90
2018-11-02T00:45:25.442Z,9.90
2018-11-02T00:47:59.666Z,9.90
2018-11-02T00:50:33.954Z,9.90
2018-11-02T00:53:08.076Z,9.90
2018-11-02T00:55:42.178Z,10.00
2018-11-02T00:58:16.318Z,10.00
2018-11-02T01:00:50.666Z,10.00
2018-11-02T01:03:24.891Z,10.00
2018-11-02T01:05:59.034Z,9.90
2018-11-02T01:08:33.274Z,10.00
2018-11-02T01:11:07.602Z,10.00
2018-11-02T01:13:41.874Z,9.90
2018-11-02T01:16:16.212Z,10.00
2018-11-02T01:18:50.465Z,10.00
2018-11-02T01:21:24.610Z,10.00
2018-11-02T01:23:58.729Z,9.90
2018-11-02T01:26:33.041Z,10.00
2018-11-02T01:29:07.282Z,10.00
2018-11-02T01:31:41.501Z,10.00
2018-11-02T01:34:15.850Z,10.00
2018-11-02T01:36:50.088Z,10.00
2018-11-02T01:39:24.226Z,10.10
2018-11-02T01:41:58.442Z,10.20
2018-11-02T01:44:33.200Z,10.20
2018-11-02T01:47:07.650Z,10.20
2018-11-02T01:49:41.761Z,10.30
2018-11-02T01:52:15.866Z,10.30
2018-11-02T01:54:49.989Z,10.40
2018-11-02T01:57:24.102Z,10.40
2018-11-02T01:59:58.413Z,10.50
2018-11-02T02:02:32.530Z,10.50
2018-11-02T02:05:07.090Z,10.50
2018-11-02T02:07:41.214Z,10.50
2018-11-02T02:10:15.495Z,10.50
2018-11-02T02:12:49.685Z,10.50
2018-11-02T02:15:23.923Z,10.60
2018-11-02T02:17:58.270Z,10.60
2018-11-02T02:20:32.597Z,10.60
2018-11-02T02:23:06.706Z,10.60
2018-11-02T02:25:40.798Z,10.60
2018-11-02T02:28:14.932Z,10.60
2018-11-02T02:30:49.062Z,10.60
2018-11-02T02:33:23.356Z,10.60
2018-11-02T02:35:57.671Z,10.60
2018-11-02T02:38:31.934Z,10.60
2018-11-02T02:41:06.099Z,10.50
2018-11-02T02:43:40.233Z,10.50
2018-11-02T02:46:14.427Z,10.40
2018-11-02T02:48:48.714Z,10.40
2018-11-02T02:51:22.839Z,10.30
2018-11-02T02:53:56.993Z,10.30
2018-11-02T02:56:31.218Z,10.30
2018-11-02T02:59:05.394Z,10.30
2018-11-02T03:01:39.570Z,10.30
2018-11-02T03:04:13.797Z,10.30
2018-11-02T03:06:48.039Z,10.30
2018-11-02T03:09:22.159Z,10.30
2018-11-02T03:11:56.294Z,10.30
2018-11-02T03:14:30.449Z,10.20
2018-11-02T03:17:04.809Z,10.30
2018-11-02T03:19:38.926Z,10.20
2018-11-02T03:22:13.055Z,10.20
2018-11-02T03:24:47.165Z,10.30
2018-11-02T03:27:21.392Z,10.30
2018-11-02T03:29:55.738Z,10.50
2018-11-02T03:32:29.878Z,10.50
2018-11-02T03:35:04.014Z,10.50
2018-11-02T03:37:38.396Z,10.60
2018-11-02T03:40:12.646Z,10.70
2018-11-02T03:42:46.762Z,10.70
2018-11-02T03:45:21.097Z,10.80
2018-11-02T03:47:55.225Z,10.90
2018-11-02T03:50:29.542Z,11.00
2018-11-02T03:53:03.786Z,11.00
2018-11-02T03:55:38.058Z,11.00
2018-11-02T03:58:12.237Z,11.10
2018-11-02T04:00:46.619Z,11.10
2018-11-02T04:03:20.742Z,11.10
2018-11-02T04:05:55.043Z,11.20
2018-11-02T04:08:29.151Z,11.10
2018-11-02T04:11:03.290Z,11.20
2018-11-02T04:13:37.434Z,11.20
2018-11-02T04:16:11.573Z,11.20
2018-11-02T04:18:45.890Z,11.30
2018-11-02T04:21:20.104Z,11.30
2018-11-02T04:23:54.313Z,11.30
2018-11-02T04:26:28.649Z,11.30
2018-11-02T04:29:02.761Z,11.20
2018-11-02T04:31:37.079Z,11.20
2018-11-02T04:34:11.355Z,11.30
2018-11-02T04:36:45.591Z,11.30
2018-11-02T04:39:19.703Z,11.30
2018-11-02T04:41:53.932Z,11.30
2018-11-02T04:44:28.033Z,11.30
2018-11-02T04:47:02.274Z,11.20
2018-11-02T04:49:36.381Z,11.20
2018-11-02T04:52:10.717Z,11.20
2018-11-02T04:54:45.055Z,11.30
2018-11-02T04:57:19.170Z,11.30
2018-11-02T04:59:53.513Z,11.30
2018-11-02T05:02:27.738Z,11.30
2018-11-02T05:05:01.899Z,11.20
2018-11-02T05:07:35.990Z,11.30
2018-11-02T05:10:10.514Z,11.30
2018-11-02T05:12:44.874Z,11.30
2018-11-02T05:15:19.107Z,11.30
2018-11-02T05:17:53.239Z,11.30
2018-11-02T05:20:27.426Z,11.30
2018-11-02T05:23:01.722Z,11.30
2018-11-02T05:25:35.849Z,11.30
2018-11-02T05:28:09.954Z,11.40
2018-11-02T05:30:44.095Z,11.40
2018-11-02T05:33:18.274Z,11.40
2018-11-02T05:35:52.392Z,11.40
2018-11-02T05:38:26.493Z,11.40
2018-11-02T05:41:00.627Z,11.30
2018-11-02T05:43:34.721Z,11.30
2018-11-02T05:46:09.030Z,11.40
2018-11-02T05:48:43.140Z,11.40
2018-11-02T05:51:17.386Z,11.40
2018-11-02T05:53:51.622Z,11.40
2018-11-02T05:56:25.820Z,11.30
2018-11-02T05:58:59.922Z,11.40
2018-11-02T06:01:34.221Z,11.40
2018-11-02T06:04:08.457Z,11.40
2018-11-02T06:06:42.714Z,11.40
2018-11-02T06:09:16.918Z,11.40
2018-11-02T06:11:51.126Z,11.40
2018-11-02T06:14:25.323Z,11.40
2018-11-02T06:16:59.530Z,11.40
2018-11-02T06:19:33.573Z,11.40
2018-11-02T06:22:07.674Z,11.40
2018-11-02T06:24:41.910Z,11.40
2018-11-02T06:27:16.018Z,11.40
2018-11-02T06:29:50.225Z,11.50
2018-11-02T06:32:24.554Z,11.40
2018-11-02T06:34:58.650Z,11.50
2018-11-02T06:37:32.782Z,11.50
2018-11-02T06:40:07.245Z,11.50
2018-11-02T06:42:41.497Z,11.50
2018-11-02T06:45:15.628Z,11.50
2018-11-02T06:47:49.717Z,11.40
2018-11-02T06:50:24.046Z,11.40
2018-11-02T06:52:58.386Z,11.40
2018-11-02T06:55:32.498Z,11.30
2018-11-02T06:58:06.737Z,11.30
2018-11-02T07:00:40.846Z,11.20
2018-11-02T07:03:15.166Z,11.20
2018-11-02T07:05:49.393Z,11.20
2018-11-02T07:08:23.570Z,11.20
2018-11-02T07:10:57.786Z,11.20
2018-11-02T07:13:32.042Z,11.10
2018-11-02T07:16:06.463Z,11.10
2018-11-02T07:18:40.726Z,11.10
2018-11-02T07:21:15.054Z,11.00
2018-11-02T07:23:49.293Z,11.00
2018-11-02T07:26:23.762Z,11.00
2018-11-02T07:28:57.918Z,11.00
2018-11-02T07:31:32.168Z,11.00
2018-11-02T07:34:06.815Z,11.00
2018-11-02T07:36:41.016Z,10.90
2018-11-02T07:39:15.127Z,10.90
2018-11-02T07:41:49.475Z,10.80
2018-11-02T07:44:23.598Z,10.70
2018-11-02T07:46:58.641Z,10.70
2018-11-02T07:49:32.866Z,10.70
2018-11-02T07:52:06.938Z,10.70
2018-11-02T07:54:41.140Z,10.60
2018-11-02T07:57:15.269Z,10.60
2018-11-02T07:59:49.622Z,10.70
2018-11-02T08:02:23.950Z,10.70
2018-11-02T08:04:58.187Z,10.80
2018-11-02T08:07:32.435Z,10.80
2018-11-02T08:10:06.839Z,10.80
2018-11-02T08:12:40.974Z,10.80
2018-11-02T08:15:15.346Z,10.70
2018-11-02T08:17:49.659Z,10.80
2018-11-02T08:20:23.726Z,10.80
2018-11-02T08:22:57.846Z,10.70
2018-11-02T08:25:32.159Z,10.70
2018-11-02T08:28:06.514Z,10.70
2018-11-02T08:30:40.898Z,10.70
2018-11-02T08:33:15.158Z,10.70
2018-11-02T08:35:49.449Z,10.80
2018-11-02T08:38:23.583Z,10.60
2018-11-02T08:40:57.931Z,10.50
2018-11-02T08:43:32.265Z,10.60
2018-11-02T08:46:06.542Z,10.60
2018-11-02T08:48:40.790Z,10.70
2018-11-02T08:51:15.031Z,10.60
2018-11-02T08:53:49.310Z,10.70
2018-11-02T08:56:23.575Z,10.70
2018-11-02T08:58:57.955Z,10.80
2018-11-02T09:01:32.246Z,10.70
2018-11-02T09:04:06.650Z,10.80
2018-11-02T09:06:40.905Z,10.80
2018-11-02T09:09:15.151Z,10.80
2018-11-02T09:11:49.476Z,10.90
2018-11-02T09:14:23.618Z,10.90
2018-11-02T09:16:57.871Z,10.90
2018-11-02T09:19:32.301Z,11.00
2018-11-02T09:22:06.362Z,11.00
2018-11-02T09:24:40.570Z,11.10
2018-11-02T09:27:14.792Z,11.30
2018-11-02T09:29:49.034Z,11.40
2018-11-02T09:32:23.303Z,11.70
2018-11-02T09:34:57.505Z,11.90
2018-11-02T09:37:31.741Z,11.90
2018-11-02T09:40:07.002Z,11.90
2018-11-02T09:42:41.312Z,11.90
2018-11-02T09:45:15.554Z,11.90
2018-11-02T09:47:49.690Z,11.90
2018-11-02T09:50:23.918Z,11.80
2018-11-02T09:52:58.198Z,11.60
2018-11-02T09:55:32.546Z,11.70
2018-11-02T09:58:06.870Z,11.70
2018-11-02T10:00:41.213Z,11.70
2018-11-02T10:03:15.476Z,11.70
2018-11-02T10:05:49.741Z,11.70
2018-11-02T10:08:23.907Z,11.70
2018-11-02T10:10:58.098Z,11.70
2018-11-02T10:13:32.226Z,11.70
2018-11-02T10:16:06.763Z,11.60
2018-11-02T10:18:40.974Z,11.60
2018-11-02T10:21:15.809Z,11.60
2018-11-02T10:23:50.065Z,11.70
2018-11-02T10:26:24.150Z,11.60
2018-11-02T10:28:58.406Z,11.60
2018-11-02T10:31:32.611Z,11.60
2018-11-02T10:34:06.974Z,11.60
2018-11-02T10:36:41.347Z,11.60
2018-11-02T10:39:15.494Z,11.60
2018-11-02T10:41:52.218Z,11.60
2018-11-02T10:44:30.859Z,11.60
2018-11-02T10:47:05.938Z,11.60
2018-11-02T10:49:40.077Z,11.60
2018-11-02T10:52:14.309Z,11.70
2018-11-02T10:54:48.441Z,11.70
2018-11-02T10:57:22.645Z,11.70
2018-11-02T10:59:56.932Z,11.70
2018-11-02T11:02:36.883Z,11.80
2018-11-02T11:05:11.131Z,11.80
2018-11-02T11:07:45.325Z,11.80
2018-11-02T11:10:19.438Z,11.90
2018-11-02T11:12:53.831Z,11.80
2018-11-02T11:15:27.785Z,11.80
2018-11-02T11:18:01.945Z,11.70
2018-11-02T11:20:36.203Z,11.70
2018-11-02T11:23:10.311Z,11.80
2018-11-02T11:25:44.564Z,11.80
2018-11-02T11:28:18.759Z,11.70
2018-11-02T11:30:52.906Z,11.70
2018-11-02T11:33:27.106Z,11.70
2018-11-02T11:36:01.326Z,11.80
2018-11-02T11:38:35.637Z,11.70
2018-11-02T11:41:09.879Z,11.70
2018-11-02T11:43:44.102Z,11.80
2018-11-02T11:46:18.230Z,11.80
2018-11-02T11:48:52.464Z,11.90
2018-11-02T11:51:26.670Z,11.90
2018-11-02T11:54:00.798Z,11.90
2018-11-02T11:56:34.917Z,11.90
2018-11-02T11:59:09.073Z,12.00
2018-11-02T12:01:43.433Z,12.00
2018-11-02T12:04:17.717Z,12.10
2018-11-02T12:06:51.830Z,11.90
2018-11-02T12:09:26.097Z,11.90
2018-11-02T12:12:00.339Z,12.00
2018-11-02T12:14:34.593Z,11.90
2018-11-02T12:17:08.706Z,11.90
2018-11-02T12:19:42.826Z,11.80
2018-11-02T12:22:17.130Z,11.80
2018-11-02T12:24:51.254Z,11.80
2018-11-02T12:27:25.359Z,11.90
2018-11-02T12:29:59.509Z,11.80
2018-11-02T12:32:33.786Z,11.70
2018-11-02T12:35:09.243Z,11.50
2018-11-02T12:37:43.459Z,11.60
2018-11-02T12:40:19.026Z,11.50
2018-11-02T12:42:54.242Z,11.30
2018-11-02T12:45:28.349Z,11.40
2018-11-02T12:48:02.559Z,11.40
2018-11-02T12:50:36.704Z,11.40
2018-11-02T12:53:10.752Z,11.50
2018-11-02T12:55:44.885Z,11.50
2018-11-02T12:58:19.110Z,11.60
2018-11-02T13:00:53.442Z,11.70
2018-11-02T13:03:27.637Z,11.90
2018-11-02T13:06:01.770Z,12.20
2018-11-02T13:08:35.949Z,12.30
2018-11-02T13:11:10.073Z,12.40
2018-11-02T13:13:44.401Z,12.50
2018-11-02T13:16:18.631Z,12.60
2018-11-02T13:18:52.912Z,12.70
2018-11-02T13:21:26.992Z,12.80
2018-11-02T13:24:01.111Z,12.80
2018-11-02T13:26:35.377Z,12.80
2018-11-02T13:29:09.934Z,12.80
2018-11-02T13:31:44.368Z,12.80
2018-11-02T13:34:18.595Z,12.70
2018-11-02T13:36:52.878Z,12.70
2018-11-02T13:39:27.142Z,12.50
2018-11-02T13:42:01.398Z,12.50
2018-11-02T13:44:35.503Z,12.40
2018-11-02T13:47:09.760Z,12.30
2018-11-02T13:49:43.875Z,12.30
2018-11-02T13:52:18.133Z,12.20
2018-11-02T13:54:52.385Z,12.10
2018-11-02T13:57:26.722Z,12.10
2018-11-02T14:00:00.877Z,12.00
2018-11-02T14:02:34.977Z,11.90
2018-11-02T14:05:11.124Z,11.80
2018-11-02T14:07:45.237Z,11.80
2018-11-02T14:10:19.418Z,11.70
2018-11-02T14:12:53.763Z,11.70
2018-11-02T14:15:27.894Z,11.60
2018-11-02T14:18:02.018Z,11.70
2018-11-02T14:20:36.221Z,11.60
2018-11-02T14:23:10.330Z,11.60
2018-11-02T14:25:44.441Z,11.60
2018-11-02T14:28:18.694Z,11.50
2018-11-02T14:30:52.809Z,11.50
2018-11-02T14:33:26.942Z,11.50
2018-11-02T14:36:01.182Z,11.60
2018-11-02T14:38:35.539Z,11.60
2018-11-02T14:41:09.859Z,11.60
2018-11-02T14:43:44.053Z,11.60
2018-11-02T14:46:18.433Z,11.60
2018-11-02T14:48:52.561Z,11.60
2018-11-02T14:51:26.794Z,11.60
2018-11-02T14:54:01.045Z,11.60
2018-11-02T14:56:35.282Z,11.60
2018-11-02T14:59:09.466Z,11.60
2018-11-02T15:01:43.561Z,11.60
2018-11-02T15:04:17.698Z,11.50
2018-11-02T15:06:52.047Z,11.40
2018-11-02T15:09:26.282Z,11.30
2018-11-02T15:12:00.442Z,11.40
2018-11-02T15:14:34.729Z,11.30
2018-11-02T15:17:09.041Z,11.30
2018-11-02T15:19:43.741Z,11.30
2018-11-02T15:22:17.919Z,11.30
2018-11-02T15:24:52.118Z,11.30
2018-11-02T15:27:26.249Z,11.30
2018-11-02T15:30:00.382Z,11.30
2018-11-02T15:32:34.506Z,11.20
2018-11-02T15:35:09.164Z,11.20
2018-11-02T15:37:43.646Z,11.10
2018-11-02T15:40:17.962Z,11.10
2018-11-02T15:42:52.310Z,11.10
2018-11-02T15:45:26.429Z,11.10
2018-11-02T15:48:00.682Z,11.00
2018-11-02T15:50:37.278Z,10.90
2018-11-02T15:53:11.546Z,10.90
2018-11-02T15:55:45.654Z,10.90
2018-11-02T15:58:19.806Z,11.00
2018-11-02T16:00:53.950Z,10.90
2018-11-02T16:03:29.439Z,10.90
2018-11-02T16:06:03.661Z,10.90
2018-11-02T16:08:39.914Z,10.80
2018-11-02T16:11:14.089Z,10.80
2018-11-02T16:13:48.313Z,10.90
2018-11-02T16:16:22.638Z,10.80
2018-11-02T16:18:56.814Z,10.80
2018-11-02T16:21:31.017Z,10.80
2018-11-02T16:24:05.487Z,10.60
2018-11-02T16:26:40.602Z,10.50
2018-11-02T16:29:14.990Z,10.60
2018-11-02T16:31:49.098Z,10.60
2018-11-02T16:34:23.484Z,10.60
2018-11-02T16:36:57.654Z,10.70
2018-11-02T16:39:32.010Z,10.70
2018-11-02T16:42:06.362Z,10.60
2018-11-02T16:44:40.723Z,10.60
2018-11-02T16:47:14.887Z,10.60
2018-11-02T16:49:49.275Z,10.60
2018-11-02T16:52:23.519Z,10.60
2018-11-02T16:54:57.778Z,10.50
2018-11-02T16:57:32.075Z,10.50
2018-11-02T17:00:09.106Z,10.50
2018-11-02T17:02:44.086Z,10.40
2018-11-02T17:05:18.554Z,10.30
2018-11-02T17:07:52.790Z,10.30
2018-11-02T17:10:26.974Z,10.30
2018-11-02T17:13:01.291Z,10.20
2018-11-02T17:15:35.425Z,10.20
2018-11-02T17:18:09.753Z,10.20
2018-11-02T17:20:44.042Z,10.10
2018-11-02T17:23:18.235Z,10.10
2018-11-02T17:25:52.414Z,10.00
2018-11-02T17:28:26.620Z,10.00
2018-11-02T17:31:00.910Z,10.00
2018-11-02T17:33:35.306Z,9.90
2018-11-02T17:36:09.430Z,9.90
2018-11-02T17:38:43.531Z,9.90
2018-11-02T17:41:17.881Z,9.90
2018-11-02T17:43:52.089Z,9.90
2018-11-02T17:46:26.187Z,9.80
2018-11-02T17:49:00.502Z,9.80
2018-11-02T17:51:34.823Z,9.80
2018-11-02T17:54:09.067Z,9.70
2018-11-02T17:56:43.310Z,9.60
2018-11-02T17:59:17.500Z,9.60
2018-11-02T18:01:51.567Z,9.60
2018-11-02T18:04:25.773Z,9.60
2018-11-02T18:07:00.018Z,9.60
2018-11-02T18:09:34.118Z,9.60
2018-11-02T18:12:08.446Z,9.50
2018-11-02T18:14:42.707Z,9.60
2018-11-02T18:17:17.033Z,9.60
2018-11-02T18:19:51.195Z,9.60
2018-11-02T18:22:25.447Z,9.60
2018-11-02T18:24:59.629Z,9.70
2018-11-02T18:27:33.759Z,9.60
2018-11-02T18:30:08.767Z,9.60
2018-11-02T18:32:42.890Z,9.60
2018-11-02T18:35:17.160Z,9.60
2018-11-02T18:37:51.311Z,9.60
2018-11-02T18:40:25.549Z,9.60
2018-11-02T18:42:59.676Z,9.50
2018-11-02T18:45:33.803Z,9.50
2018-11-02T18:48:08.042Z,9.40
2018-11-02T18:50:42.270Z,9.50
2018-11-02T18:53:16.504Z,9.50
2018-11-02T18:55:50.626Z,9.50
2018-11-02T18:58:24.743Z,9.50
2018-11-02T19:00:58.870Z,9.50
2018-11-02T19:03:33.070Z,9.50
2018-11-02T19:06:07.202Z,9.50
2018-11-02T19:08:41.514Z,9.60
2018-11-02T19:11:15.665Z,9.60
2018-11-02T19:13:49.922Z,9.60
2018-11-02T19:16:24.155Z,9.60
2018-11-02T19:18:58.268Z,9.60
2018-11-02T19:21:32.714Z,9.50
2018-11-02T19:24:06.845Z,9.60
2018-11-02T19:26:41.055Z,9.60
2018-11-02T19:29:15.158Z,9.60
2018-11-02T19:31:49.467Z,9.60
2018-11-02T19:34:24.082Z,9.60
2018-11-02T19:36:58.267Z,9.60
2018-11-02T19:39:32.366Z,9.60
2018-11-02T19:42:06.474Z,9.60
2018-11-02T19:44:40.706Z,9.60
2018-11-02T19:47:14.826Z,9.60
2018-11-02T19:49:49.192Z,9.50
2018-11-02T19:52:23.317Z,9.50
2018-11-02T19:54:57.443Z,9.50
2018-11-02T19:57:31.753Z,9.50
2018-11-02T20:00:07.590Z,9.50
2018-11-02T20:02:42.247Z,9.50
2018-11-02T20:05:17.622Z,9.50
2018-11-02T20:07:51.971Z,9.50
2018-11-02T20:10:44.624Z,9.50
2018-11-02T20:13:18.930Z,9.50
2018-11-02T20:15:53.164Z,9.50
2018-11-02T20:18:27.405Z,9.40
2018-11-02T20:21:01.635Z,9.40
2018-11-02T20:23:35.754Z,9.40
2018-11-02T20:26:09.918Z,9.30
2018-11-02T20:28:44.221Z,9.30
2018-11-02T20:31:18.430Z,9.30
2018-11-02T20:33:52.702Z,9.20
2018-11-02T20:36:26.921Z,9.20
2018-11-02T20:39:01.257Z,9.20
2018-11-02T20:41:35.391Z,9.10
2018-11-02T20:44:09.646Z,9.00
2018-11-02T20:46:43.742Z,9.00
2018-11-02T20:49:17.953Z,8.90
2018-11-02T20:51:52.273Z,8.80
2018-11-02T20:54:26.505Z,8.70
2018-11-02T20:57:00.761Z,8.70
2018-11-02T20:59:34.966Z,8.60
2018-11-02T21:02:09.186Z,8.60
2018-11-02T21:04:43.311Z,8.40
2018-11-02T21:07:17.550Z,8.40
2018-11-02T21:09:51.610Z,8.30
2018-11-02T21:12:25.817Z,8.30
2018-11-02T21:15:00.039Z,8.30
2018-11-02T21:17:34.075Z,8.20
2018-11-02T21:20:10.506Z,8.10
2018-11-02T21:22:44.762Z,8.10
2018-11-02T21:25:18.859Z,8.00
2018-11-02T21:27:53.134Z,8.00
2018-11-02T21:30:27.290Z,8.00
2018-11-02T21:33:01.445Z,7.90
2018-11-02T21:35:35.757Z,7.80
2018-11-02T21:38:10.019Z,7.80
2018-11-02T21:40:44.185Z,7.80
2018-11-02T21:43:18.438Z,7.70
2018-11-02T21:45:52.542Z,7.60
2018-11-02T21:48:26.919Z,7.60
2018-11-02T21:51:14.475Z,7.50
2018-11-02T21:53:48.774Z,7.50
2018-11-02T21:56:23.453Z,7.50
2018-11-02T21:58:57.812Z,7.50
2018-11-02T22:01:32.307Z,7.40
2018-11-02T22:04:11.919Z,7.40
2018-11-02T22:06:46.094Z,7.30
2018-11-02T22:09:20.302Z,7.30
2018-11-02T22:11:54.629Z,7.30
2018-11-02T22:14:28.805Z,7.20
2018-11-02T22:17:02.909Z,7.20
2018-11-02T22:19:37.050Z,7.20
2018-11-02T22:22:11.158Z,7.20
2018-11-02T22:24:45.314Z,7.10
2018-11-02T22:27:19.617Z,7.10
2018-11-02T22:29:53.766Z,7.10
2018-11-02T22:32:27.949Z,7.10
2018-11-02T22:35:02.070Z,7.10
2018-11-02T22:37:42.101Z,7.10
2018-11-02T22:40:16.342Z,7.00
2018-11-02T22:42:50.646Z,7.00
2018-11-02T22:45:24.758Z,6.90
2018-11-02T22:48:04.190Z,6.90
2018-11-02T22:50:38.330Z,6.90
2018-11-02T22:53:12.442Z,6.80
2018-11-02T22:55:46.587Z,6.80
2018-11-02T22:58:20.815Z,6.70
2018-11-02T23:01:00.338Z,6.70
2018-11-02T23:03:34.461Z,6.70
2018-11-02T23:06:08.558Z,6.70
2018-11-02T23:08:42.717Z,6.60
2018-11-02T23:11:16.806Z,6.60
2018-11-02T23:13:50.953Z,6.60
2018-11-02T23:16:25.159Z,6.60
2018-11-02T23:18:59.286Z,6.50
2018-11-02T23:21:33.509Z,6.50
2018-11-02T23:24:07.674Z,6.50
2018-11-02T23:26:41.827Z,6.50
2018-11-02T23:29:16.098Z,6.40
2018-11-02T23:31:50.238Z,6.40
2018-11-02T23:34:24.462Z,6.40
2018-11-02T23:36:58.577Z,6.40
2018-11-02T23:39:32.690Z,6.40
2018-11-02T23:42:06.873Z,6.40
2018-11-02T23:44:41.151Z,6.30
2018-11-02T23:47:15.247Z,6.30
2018-11-02T23:49:49.417Z,6.30
2018-11-02T23:52:24.063Z,6.20
2018-11-02T23:54:58.310Z,6.20
2018-11-02T23:57:32.470Z,6.20
